Time;durP1;ratioP1;P1;durP2;ratioP2;P2;SDS_P1;SDS_P2;PMS_P1;PMS_P2;Temp;Humidity;BMP_temperature;BMP_pressure;BME280_temperature;BME280_humidity;BME280_pressure;Samples;Min_cycle;Max_cycle;Signal;HPM_P1;HPM_P2
2023/01/16 00:00:10;;;;;;;9.93;4.05;;;;;;;4.06;100.00;99374.81;6249790;28;20049;-82
2023/01/16 00:03:11;;;;;;;4.85;2.65;;;;;;;4.03;100.00;99388.69;6249456;28;20050;-82
2023/01/16 00:06:14;;;;;;;5.30;3.20;;;;;;;4.04;100.00;99376.63;6249579;28;20091;-82
2023/01/16 00:09:17;;;;;;;9.63;3.30;;;;;;;4.06;100.00;99379.13;6250784;28;20037;-85
2023/01/16 00:12:18;;;;;;;6.60;3.30;;;;;;;4.16;100.00;99367.47;6249444;28;20056;-85
2023/01/16 00:15:19;;;;;;;5.60;3.13;;;;;;;4.06;100.00;99374.81;6248532;28;20046;-85
2023/01/16 00:18:20;;;;;;;4.78;2.53;;;;;;;4.01;100.00;99371.59;6250052;28;20159;-85
2023/01/16 00:21:25;;;;;;;7.82;2.97;;;;;;;4.06;100.00;99348.13;6249227;28;20478;-83
2023/01/16 00:24:26;;;;;;;6.22;2.33;;;;;;;4.09;100.00;99359.19;6282477;28;20085;-84
2023/01/16 00:27:27;;;;;;;5.15;2.58;;;;;;;4.08;100.00;99341.16;6249392;28;20047;-85
2023/01/16 00:30:28;;;;;;;5.00;3.03;;;;;;;4.01;100.00;99320.78;6250289;28;20061;-85
2023/01/16 00:33:29;;;;;;;7.65;3.70;;;;;;;4.11;100.00;99328.13;6250311;28;20045;-83
2023/01/16 00:36:29;;;;;;;8.15;4.57;;;;;;;4.14;100.00;99327.97;6265684;28;20148;-80
2023/01/16 00:39:30;;;;;;;5.78;3.30;;;;;;;4.01;100.00;99333.69;6248666;28;20085;-80
2023/01/16 00:42:31;;;;;;;8.30;3.78;;;;;;;4.03;100.00;99342.22;6248750;28;20048;-81
2023/01/16 00:45:32;;;;;;;4.20;2.92;;;;;;;4.06;100.00;99340.41;6249943;28;20038;-83
2023/01/16 00:48:32;;;;;;;9.07;3.85;;;;;;;4.03;100.00;99343.97;6250004;28;20049;-81
2023/01/16 00:51:33;;;;;;;8.50;4.18;;;;;;;4.13;100.00;99331.47;6267766;28;20406;-81
2023/01/16 00:54:34;;;;;;;4.78;2.63;;;;;;;4.03;100.00;99324.13;6274598;28;20041;-81
2023/01/16 00:57:37;;;;;;;6.88;3.75;;;;;;;4.11;100.00;99318.63;6273417;28;20190;-81
2023/01/16 01:00:40;;;;;;;3.80;2.20;;;;;;;4.21;100.00;99339.72;6271863;28;20095;-81
2023/01/16 01:03:43;;;;;;;9.38;2.85;;;;;;;4.27;100.00;99334.25;6272999;28;20128;-84
2023/01/16 01:06:46;;;;;;;5.50;3.70;;;;;;;4.32;100.00;99336.63;6274283;28;20045;-81
2023/01/16 01:09:47;;;;;;;5.32;3.35;;;;;;;4.21;100.00;99330.22;6272746;28;20036;-81
2023/01/16 01:12:48;;;;;;;7.28;4.25;;;;;;;4.20;100.00;99333.72;6271793;28;20451;-83
2023/01/16 01:15:49;;;;;;;4.97;3.10;;;;;;;4.17;100.00;99313.19;6274125;28;20468;-83
2023/01/16 01:18:50;;;;;;;7.35;3.63;;;;;;;4.16;100.00;99321.84;6273227;28;20443;-83
2023/01/16 01:21:51;;;;;;;8.50;3.40;;;;;;;4.25;100.00;99318.00;6271905;28;20064;-84
2023/01/16 01:24:52;;;;;;;5.65;3.80;;;;;;;4.23;100.00;99323.22;6271676;28;20076;-84
2023/01/16 01:27:53;;;;;;;7.32;3.63;;;;;;;4.27;100.00;99317.94;6273653;28;20033;-84
2023/01/16 01:30:54;;;;;;;10.30;4.05;;;;;;;4.30;100.00;99320.34;6273827;28;20059;-81
2023/01/16 01:33:54;;;;;;;9.23;4.05;;;;;;;4.31;100.00;99317.72;6273917;28;20048;-84
2023/01/16 01:36:55;;;;;;;5.75;3.35;;;;;;;4.28;100.00;99312.69;6272464;28;20091;-84
2023/01/16 01:39:56;;;;;;;6.75;2.47;;;;;;;4.20;100.00;99302.72;6272460;28;20048;-84
2023/01/16 01:42:59;;;;;;;11.15;2.72;;;;;;;4.28;100.00;99310.09;6272250;28;20041;-84
2023/01/16 01:46:02;;;;;;;10.93;3.67;;;;;;;4.15;100.00;99299.50;6272269;28;20045;-81
2023/01/16 01:49:15;;;;;;;5.35;3.25;;;;;;;4.21;100.00;99295.81;6273306;28;20044;-81
2023/01/16 01:52:19;;;;;;;6.40;3.53;;;;;;;4.23;100.00;99281.91;6273245;28;20040;-81
2023/01/16 01:55:21;;;;;;;5.00;3.03;;;;;;;4.24;100.00;99278.44;6273093;28;20037;-81
2023/01/16 01:58:26;;;;;;;11.00;4.55;;;;;;;4.27;100.00;99267.13;6273270;28;20049;-81
2023/01/16 02:01:29;;;;;;;9.13;4.50;;;;;;;4.31;100.00;99272.97;6271922;28;20396;-83
2023/01/16 02:04:34;;;;;;;6.55;3.88;;;;;;;4.28;100.00;99273.09;6271795;28;20065;-81
2023/01/16 02:07:37;;;;;;;5.10;2.63;;;;;;;4.29;100.00;99270.47;6272767;28;20052;-81
2023/01/16 02:10:45;;;;;;;6.30;4.05;;;;;;;4.34;100.00;99272.81;6272212;28;20405;-81
2023/01/16 02:13:46;;;;;;;5.00;3.13;;;;;;;4.32;100.00;99274.63;6272445;28;20041;-81
2023/01/16 02:20:25;;;;;;;7.85;3.97;;;;;;;4.38;100.00;99266.59;6272732;28;20128;-81
2023/01/16 02:23:26;;;;;;;4.65;2.83;;;;;;;4.36;100.00;99266.66;6271179;28;20057;-81
2023/01/16 02:26:42;;;;;;;6.82;3.88;;;;;;;4.32;100.00;99254.81;6271430;28;20041;-81
2023/01/16 02:30:12;;;;;;;5.15;3.17;;;;;;;4.28;100.00;99255.84;6272407;28;20052;-81
2023/01/16 02:33:54;;;;;;;6.57;3.90;;;;;;;4.37;100.00;99254.59;6251245;28;20083;-81
2023/01/16 02:37:16;;;;;;;7.65;3.88;;;;;;;4.35;100.00;99248.69;6270325;28;20048;-81
2023/01/16 02:40:39;;;;;;;5.13;3.08;;;;;;;4.34;100.00;99245.22;6247405;28;20405;-81
2023/01/16 02:43:39;;;;;;;;;;;;;;;4.34;100.00;99244.41;6247718;28;20056;-81
2023/01/16 02:46:51;;;;;;;6.13;3.17;;;;;;;4.34;100.00;99252.97;6247480;28;20373;-84
2023/01/16 02:50:11;;;;;;;3.53;2.47;;;;;;;4.32;100.00;99252.22;6246444;28;20041;-84
2023/01/16 02:53:36;;;;;;;10.18;4.22;;;;;;;4.35;100.00;99240.94;6246137;28;20053;-81
2023/01/16 02:56:42;;;;;;;6.63;3.63;;;;;;;4.37;100.00;99237.34;6246377;28;20080;-81
2023/01/16 02:59:43;;;;;;;6.15;3.03;;;;;;;4.38;100.00;99233.03;6246210;28;20042;-81
2023/01/16 03:02:48;;;;;;;7.13;3.35;;;;;;;4.24;100.00;99226.78;6246003;28;20592;-84
2023/01/16 03:05:56;;;;;;;5.93;2.78;;;;;;;4.26;100.00;99226.69;6245993;28;20080;-81
2023/01/16 03:09:31;;;;;;;6.15;2.92;;;;;;;4.23;100.00;99221.69;6247349;28;20045;-84
2023/01/16 03:12:40;;;;;;;8.00;3.28;;;;;;;4.21;100.00;99223.50;6247400;28;20057;-84
2023/01/16 03:15:50;;;;;;;5.45;3.45;;;;;;;4.35;100.00;99221.09;6246245;28;21105;-84
2023/01/16 03:19:23;;;;;;;6.32;3.60;;;;;;;4.45;100.00;99216.31;6246405;28;20045;-84
2023/01/16 03:22:42;;;;;;;7.00;3.08;;;;;;;4.36;100.00;99215.00;6245728;28;20094;-84
2023/01/16 03:26:11;;;;;;;3.10;2.75;;;;;;;4.29;100.00;99200.72;6251704;28;20125;-84
2023/01/16 03:29:45;;;;;;;7.78;3.80;;;;;;;4.32;100.00;99202.31;6251180;28;20053;-84
2023/01/16 03:33:15;;;;;;;4.38;2.83;;;;;;;4.39;100.00;99201.97;6251753;28;20149;-84
2023/01/16 03:36:32;;;;;;;6.65;3.58;;;;;;;4.42;100.00;99203.53;6242948;28;20525;-84
2023/01/16 03:39:41;;;;;;;6.80;3.30;;;;;;;4.48;100.00;99205.81;6283628;28;20053;-84
2023/01/16 03:43:20;;;;;;;7.82;4.47;;;;;;;4.38;100.00;99202.03;6274622;28;20149;-84
2023/01/16 03:46:29;;;;;;;6.90;3.53;;;;;;;4.33;100.00;99199.66;6263247;28;20087;-84
2023/01/16 03:49:42;;;;;;;11.23;4.35;;;;;;;4.34;100.00;99187.59;6289043;28;20067;-84
2023/01/16 03:52:50;;;;;;;5.22;3.25;;;;;;;4.44;100.00;99188.81;6274524;28;20416;-83
2023/01/16 03:55:59;;;;;;;6.38;3.08;;;;;;;4.51;100.00;99189.31;6274522;28;20049;-84
2023/01/16 03:59:03;;;;;;;6.40;3.53;;;;;;;4.37;100.00;99184.88;6271553;28;20041;-81
2023/01/16 04:02:29;;;;;;;7.75;3.22;;;;;;;4.44;100.00;99171.56;6265843;28;20478;-81
2023/01/16 04:05:40;;;;;;;5.22;3.42;;;;;;;4.35;100.00;99177.19;6266185;28;20126;-84
2023/01/16 04:08:43;;;;;;;12.18;3.75;;;;;;;4.48;100.00;99179.16;6275365;28;20295;-82
2023/01/16 04:11:46;;;;;;;8.68;4.28;;;;;;;4.54;100.00;99176.28;6275729;28;20045;-81
2023/01/16 04:14:54;;;;;;;4.22;2.83;;;;;;;4.46;100.00;99179.22;6273924;28;20159;-81
2023/01/16 04:17:55;;;;;;;6.65;3.35;;;;;;;4.46;100.00;99186.16;6255977;28;20060;-84
2023/01/16 04:20:56;;;;;;;8.23;3.58;;;;;;;4.53;100.00;99178.03;6272990;28;20045;-84
2023/01/16 04:23:59;;;;;;;5.70;2.75;;;;;;;4.56;100.00;99172.69;6273693;28;20045;-83
2023/01/16 04:27:02;;;;;;;6.88;3.75;;;;;;;4.48;100.00;99164.50;6274660;28;20159;-84
2023/01/16 04:30:03;;;;;;;5.30;3.47;;;;;;;4.40;100.00;99153.72;6273794;28;20045;-84
2023/01/16 04:33:05;;;;;;;7.93;3.28;;;;;;;4.45;100.00;99154.31;6273876;28;20068;-84
2023/01/16 04:36:06;;;;;;;7.90;3.92;;;;;;;4.39;100.00;99145.13;6274292;28;20066;-84
2023/01/16 04:39:07;;;;;;;8.10;3.53;;;;;;;4.42;100.00;99138.97;6274047;28;20482;-84
2023/01/16 04:42:12;;;;;;;7.32;4.25;;;;;;;4.45;100.00;99141.41;6306027;28;20037;-84
2023/01/16 04:45:15;;;;;;;5.45;3.20;;;;;;;4.39;100.00;99142.53;6273701;28;20045;-84
2023/01/16 04:48:16;;;;;;;10.48;3.88;;;;;;;4.41;100.00;99140.72;6273718;28;20117;-84
2023/01/16 04:51:16;;;;;;;13.50;4.75;;;;;;;4.49;100.00;99118.81;6274784;28;20041;-84
2023/01/16 04:54:18;;;;;;;4.18;3.00;;;;;;;4.50;100.00;99143.75;6273649;28;20047;-84
2023/01/16 04:57:19;;;;;;;12.55;3.70;;;;;;;4.52;100.00;99141.94;6274810;28;20081;-84
2023/01/16 05:00:20;;;;;;;4.40;2.90;;;;;;;4.49;100.00;99136.91;6274755;28;20037;-84
2023/01/16 05:03:21;;;;;;;5.97;3.10;;;;;;;4.47;100.00;99134.41;6274566;28;20053;-81
2023/01/16 05:06:22;;;;;;;4.95;3.25;;;;;;;4.48;100.00;99125.75;6273344;28;20056;-81
2023/01/16 05:09:23;;;;;;;6.20;2.97;;;;;;;4.50;100.00;99111.00;6273144;28;20033;-81
2023/01/16 05:12:26;;;;;;;11.40;5.10;;;;;;;4.56;100.00;99117.59;6273179;28;20128;-81
2023/01/16 05:15:26;;;;;;;6.88;4.63;;;;;;;4.51;100.00;99094.59;6273761;28;20063;-84
2023/01/16 05:18:27;;;;;;;6.95;4.28;;;;;;;4.53;100.00;99110.00;6273196;28;20711;-84
2023/01/16 05:21:31;;;;;;;11.63;4.25;;;;;;;4.47;100.00;99105.16;6272476;28;20195;-84
2023/01/16 05:24:32;;;;;;;5.00;3.05;;;;;;;4.41;100.00;99098.56;6256098;28;20140;-84
2023/01/16 05:27:32;;;;;;;8.98;3.25;;;;;;;4.38;100.00;99090.97;6272677;28;20033;-84
2023/01/16 05:30:35;;;;;;;7.88;4.05;;;;;;;4.46;100.00;99106.06;6272811;28;20037;-84
2023/01/16 05:33:36;;;;;;;15.60;4.60;;;;;;;4.30;100.00;99085.34;6273912;28;20175;-84
2023/01/16 05:36:37;;;;;;;8.32;4.30;;;;;;;4.45;100.00;99076.84;6264144;28;20382;-84
2023/01/16 05:39:38;;;;;;;4.80;3.33;;;;;;;4.46;100.00;99086.25;6272882;28;20551;-84
2023/01/16 05:42:42;;;;;;;12.88;3.78;;;;;;;4.39;100.00;99085.72;6271269;28;20041;-84
2023/01/16 05:45:42;;;;;;;8.07;3.80;;;;;;;4.42;100.00;99076.97;6272107;28;20091;-84
2023/01/16 05:48:43;;;;;;;6.95;2.70;;;;;;;4.46;100.00;99065.56;6270983;28;20041;-84
2023/01/16 05:51:44;;;;;;;9.35;4.93;;;;;;;4.46;100.00;99057.81;6272262;28;20059;-84
2023/01/16 05:54:45;;;;;;;10.40;4.45;;;;;;;4.51;100.00;99055.00;6269359;28;20048;-84
2023/01/16 05:57:46;;;;;;;15.10;7.13;;;;;;;4.45;100.00;99061.34;6270717;28;20057;-84
2023/01/16 06:00:47;;;;;;;5.72;3.75;;;;;;;4.45;100.00;99058.75;6287306;28;20114;-84
2023/01/16 06:03:47;;;;;;;6.82;3.67;;;;;;;4.40;100.00;99051.22;6270765;28;20052;-84
2023/01/16 06:06:49;;;;;;;6.60;3.63;;;;;;;4.49;100.00;99047.34;6270493;28;20477;-85
2023/01/16 06:09:49;;;;;;;8.43;4.07;;;;;;;4.44;100.00;99046.72;6270678;28;20405;-85
2023/01/16 06:12:50;;;;;;;10.68;5.13;;;;;;;4.35;100.00;99042.06;6270537;28;20051;-85
2023/01/16 06:15:51;;;;;;;9.27;4.53;;;;;;;4.35;100.00;99045.47;6270860;28;20044;-84
2023/01/16 06:18:52;;;;;;;7.32;3.72;;;;;;;4.43;100.00;99039.91;6249306;28;20041;-85
2023/01/16 06:21:52;;;;;;;8.27;3.55;;;;;;;4.37;100.00;99033.31;6246699;28;20045;-85
2023/01/16 06:24:53;;;;;;;9.35;5.00;;;;;;;4.38;100.00;99039.31;6269017;28;20564;-85
2023/01/16 06:27:54;;;;;;;6.70;3.42;;;;;;;4.42;100.00;99048.56;6298267;28;20049;-85
2023/01/16 06:30:55;;;;;;;7.55;3.33;;;;;;;4.39;100.00;99039.22;6270560;28;20505;-85
2023/01/16 06:33:56;;;;;;;10.15;4.85;;;;;;;4.25;100.00;99026.19;6269440;28;20051;-85
2023/01/16 06:36:56;;;;;;;10.20;4.40;;;;;;;4.23;100.00;99028.84;6270267;28;20404;-85
2023/01/16 06:39:59;;;;;;;11.43;4.68;;;;;;;4.40;100.00;99032.31;6269174;28;20045;-85
2023/01/16 06:43:00;;;;;;;5.38;3.15;;;;;;;4.33;100.00;99023.22;6270295;28;20552;-85
2023/01/16 06:46:01;;;;;;;6.18;4.55;;;;;;;4.39;100.00;99052.16;6270868;28;20045;-84
2023/01/16 06:49:02;;;;;;;7.43;5.03;;;;;;;4.52;100.00;99041.19;6270844;28;20044;-85
2023/01/16 06:52:05;;;;;;;8.60;4.43;;;;;;;4.54;100.00;99037.59;6270816;28;20128;-85
2023/01/16 06:55:07;;;;;;;8.10;4.30;;;;;;;4.48;100.00;99034.50;6270930;28;20131;-85
2023/01/16 06:58:09;;;;;;;8.38;4.20;;;;;;;4.54;100.00;99035.00;6269560;28;20069;-85
2023/01/16 07:01:10;;;;;;;7.07;3.53;;;;;;;4.56;100.00;99033.19;6269528;28;20451;-85
2023/01/16 07:04:11;;;;;;;5.90;3.67;;;;;;;4.52;100.00;99021.34;6269364;28;20130;-85
2023/01/16 07:07:12;;;;;;;5.45;3.10;;;;;;;4.57;100.00;99028.84;6302871;28;20060;-85
2023/01/16 07:10:15;;;;;;;8.35;4.15;;;;;;;4.57;100.00;99014.19;6269379;28;20401;-85
2023/01/16 07:13:16;;;;;;;7.80;3.53;;;;;;;4.62;100.00;99019.09;6269453;28;20053;-85
2023/01/16 07:22:57;;;;;;;8.98;3.55;;;;;;;4.74;100.00;99031.38;6270149;28;20049;-84
2023/01/16 07:26:01;;;;;;;11.13;3.95;;;;;;;4.66;100.00;99024.97;6302652;28;20122;-85
2023/01/16 07:29:03;;;;;;;11.85;3.97;;;;;;;4.62;100.00;99019.09;6285710;28;20068;-85
2023/01/16 07:32:04;;;;;;;4.80;3.50;;;;;;;4.69;100.00;99024.78;6269265;28;20489;-85
2023/01/16 07:35:07;;;;;;;6.35;3.53;;;;;;;4.68;100.00;99017.97;6270457;28;20044;-85
2023/01/16 07:38:07;;;;;;;;;;;;;;;4.65;100.00;99013.75;6302897;28;20059;-84
2023/01/16 07:41:08;;;;;;;5.68;2.83;;;;;;;4.70;100.00;99006.63;6269061;28;20304;-85
2023/01/16 07:44:09;;;;;;;7.70;3.83;;;;;;;4.70;100.00;99003.22;6269043;28;20049;-85
2023/01/16 07:47:12;;;;;;;5.95;3.13;;;;;;;4.77;100.00;99002.78;6270463;28;20033;-82
2023/01/16 07:50:13;;;;;;;7.15;3.13;;;;;;;4.69;100.00;98992.00;6268865;28;20107;-81
2023/01/16 07:53:14;;;;;;;9.85;3.75;;;;;;;4.85;100.00;99004.94;6268909;28;20049;-81
2023/01/16 07:56:16;;;;;;;9.38;4.13;;;;;;;4.87;100.00;99008.28;6268769;28;20104;-81
2023/01/16 07:59:16;;;;;;;7.03;3.55;;;;;;;4.87;100.00;98997.13;6268846;28;20041;-81
2023/01/16 08:02:17;;;;;;;5.32;2.92;;;;;;;4.98;100.00;99005.13;6268866;28;20064;-81
2023/01/16 08:05:18;;;;;;;3.28;2.38;;;;;;;4.97;100.00;98998.28;6252456;28;20352;-81
2023/01/16 08:08:20;;;;;;;7.07;3.50;;;;;;;4.89;100.00;98996.13;6269785;28;20041;-81
2023/01/16 08:11:38;;;;;;;9.33;4.37;;;;;;;5.02;100.00;98993.69;6273452;28;20447;-81
2023/01/16 08:14:39;;;;;;;3.55;2.53;;;;;;;5.12;100.00;99010.34;6274295;28;20037;-81
2023/01/16 08:17:41;;;;;;;5.15;3.08;;;;;;;5.01;100.00;99004.97;6272991;28;20115;-81
2023/01/16 08:20:42;;;;;;;5.53;2.35;;;;;;;5.04;100.00;98995.28;6273102;28;20055;-81
2023/01/16 08:23:43;;;;;;;42.33;20.52;;;;;;;5.13;100.00;99003.47;6273891;28;20536;-81
2023/01/16 08:26:46;;;;;;;12.02;6.78;;;;;;;5.15;100.00;98993.88;6273978;28;20045;-81
2023/01/16 08:29:47;;;;;;;9.10;3.92;;;;;;;5.25;100.00;98993.25;6274034;28;20033;-81
2023/01/16 08:32:48;;;;;;;8.77;3.30;;;;;;;5.21;100.00;98989.19;6272840;28;20045;-81
2023/01/16 08:35:49;;;;;;;4.55;2.85;;;;;;;5.27;100.00;98992.31;6272571;28;20056;-81
2023/01/16 08:38:52;;;;;;;6.22;3.40;;;;;;;5.15;100.00;98996.44;6272599;28;20037;-81
2023/01/16 08:51:51;;;;;;;8.07;4.15;;;;;;;5.15;100.00;98975.75;6273592;28;20045;-81
2023/01/16 08:54:54;;;;;;;6.80;3.88;;;;;;;5.08;100.00;98989.94;6288768;28;20067;-81
2023/01/16 08:57:58;;;;;;;4.57;2.83;;;;;;;5.01;100.00;98987.69;6272035;28;20039;-81
2023/01/16 09:00:59;;;;;;;9.55;3.38;;;;;;;5.03;100.00;98983.25;6271993;28;20408;-81
2023/01/16 09:04:00;;;;;;;7.32;4.10;;;;;;;5.16;100.00;98975.66;6273280;28;20036;-81
2023/01/16 09:07:01;;;;;;;10.18;3.90;;;;;;;5.07;100.00;98973.59;6271793;28;20045;-81
2023/01/16 09:10:02;;;;;;;10.15;4.85;;;;;;;5.20;100.00;98981.50;6271894;28;20041;-81
2023/01/16 09:16:24;;;;;;;9.40;4.85;;;;;;;5.19;100.00;98961.75;6273022;28;20049;-84
2023/01/16 09:19:25;;;;;;;9.82;4.75;;;;;;;5.15;100.00;98960.25;6272792;28;20099;-84
2023/01/16 09:22:26;;;;;;;8.55;5.38;;;;;;;5.23;100.00;98964.06;6253547;28;20069;-81
2023/01/16 09:25:29;;;;;;;11.93;5.47;;;;;;;5.24;100.00;98955.38;6271384;28;20041;-81
2023/01/16 09:28:30;;;;;;;20.88;7.30;;;;;;;5.35;100.00;98947.00;6272607;28;20119;-85
2023/01/16 09:31:30;;;;;;;19.45;11.05;;;;;;;5.37;100.00;98945.16;6271501;28;20041;-84
2023/01/16 09:34:31;;;;;;;18.05;7.50;;;;;;;5.49;100.00;98953.16;6271348;28;20421;-84
2023/01/16 09:37:32;;;;;;;13.32;6.55;;;;;;;5.46;100.00;98925.69;6272559;28;20041;-84
2023/01/16 09:40:33;;;;;;;9.60;5.20;;;;;;;5.59;100.00;98931.00;6271402;28;20090;-84
2023/01/16 09:43:49;;;;;;;11.30;5.47;;;;;;;5.50;99.75;98921.16;6270877;28;20489;-84
2023/01/16 09:46:51;;;;;;;12.60;4.80;;;;;;;5.47;100.00;98909.25;6271036;28;20045;-84
2023/01/16 09:50:23;;;;;;;8.98;4.38;;;;;;;5.53;100.00;98890.78;6272057;28;20125;-84
2023/01/16 10:00:23;;;;;;;9.60;5.10;;;;;;;5.69;98.64;98856.25;6271826;28;20549;-85
2023/01/16 10:03:24;;;;;;;26.40;4.15;;;;;;;5.78;97.71;98846.13;6270568;28;20477;-81
2023/01/16 10:06:48;;;;;;;7.47;3.45;;;;;;;5.83;98.30;98841.53;6271755;28;20102;-81
2023/01/16 10:10:14;;;;;;;8.60;4.55;;;;;;;5.81;98.41;98839.97;6270355;28;20037;-82
2023/01/16 10:13:38;;;;;;;8.80;3.55;;;;;;;5.92;99.35;98823.78;6271568;28;20045;-84
2023/01/16 10:16:57;;;;;;;8.68;5.00;;;;;;;5.93;97.16;98821.09;6270534;28;20400;-85
2023/01/16 10:20:25;;;;;;;8.90;5.93;;;;;;;5.92;98.32;98810.81;6270352;28;20048;-85
2023/01/16 10:23:45;;;;;;;8.38;4.72;;;;;;;5.94;98.91;98812.38;6271218;28;20123;-81
2023/01/16 10:26:58;;;;;;;15.90;6.40;;;;;;;5.86;97.83;98804.25;6270156;28;20124;-84
2023/01/16 10:30:10;;;;;;;8.32;4.60;;;;;;;5.89;98.88;98811.00;6253354;28;20049;-85
2023/01/16 10:33:38;;;;;;;11.55;5.03;;;;;;;5.95;98.60;98795.97;6271301;28;20048;-85
2023/01/16 10:36:43;;;;;;;8.98;4.38;;;;;;;5.96;97.65;98771.72;6269998;28;20449;-85
2023/01/16 10:39:44;;;;;;;5.20;3.25;;;;;;;5.99;98.84;98771.56;6269887;28;20040;-81
2023/01/16 10:49:37;;;;;;;13.65;5.25;;;;;;;6.22;98.59;98751.97;6270831;28;20041;-81
2023/01/16 10:52:39;;;;;;;6.35;4.15;;;;;;;6.19;98.20;98749.56;6269691;28;20536;-81
2023/01/16 10:55:48;;;;;;;9.90;5.03;;;;;;;6.19;96.08;98736.59;6269658;28;20041;-81
2023/01/16 10:58:49;;;;;;;5.97;3.42;;;;;;;6.11;95.74;98733.69;6252819;28;20487;-81
2023/01/16 11:01:51;;;;;;;6.25;4.03;;;;;;;6.24;96.11;98725.97;6252697;28;20056;-84
2023/01/16 11:04:52;;;;;;;10.25;4.20;;;;;;;6.21;97.33;98724.38;6270638;28;20045;-84
2023/01/16 11:07:54;;;;;;;7.13;4.75;;;;;;;6.33;96.40;98709.00;6270523;28;20097;-84
2023/01/16 11:10:55;;;;;;;7.47;4.40;;;;;;;6.41;96.59;98696.38;6269298;28;20048;-81
2023/01/16 11:20:49;;;;;;;7.85;4.00;;;;;;;6.34;95.30;98658.84;6270324;28;20379;-80
2023/01/16 11:24:25;;;;;;;7.47;4.90;;;;;;;6.46;96.09;98660.63;6261317;28;20214;-81
2023/01/16 11:27:36;;;;;;;6.60;3.78;;;;;;;6.49;95.50;98654.44;6232869;28;20431;-81
2023/01/16 11:30:42;;;;;;;11.48;5.53;;;;;;;6.49;96.86;98649.25;6245549;28;20038;-81
2023/01/16 11:33:59;;;;;;;9.48;4.53;;;;;;;6.30;97.69;98639.25;6244867;28;20107;-80
2023/01/16 11:37:07;;;;;;;9.82;5.40;;;;;;;6.45;96.89;98631.28;6244310;28;20099;-81
2023/01/16 11:40:17;;;;;;;33.13;14.32;;;;;;;6.45;97.89;98631.28;6261290;28;20497;-80
2023/01/16 11:46:49;;;;;;;12.05;4.78;;;;;;;6.50;99.07;98610.25;6248838;28;20474;-81
2023/01/16 11:49:52;;;;;;;12.25;5.10;;;;;;;6.47;98.30;98607.06;6232657;28;20119;-81
2023/01/16 11:52:53;;;;;;;28.67;12.35;;;;;;;6.55;99.98;98586.63;6249108;28;20045;-81
2023/01/16 11:55:56;;;;;;;23.25;11.02;;;;;;;6.55;99.01;98582.28;6250233;28;20504;-81
2023/01/16 11:59:24;;;;;;;14.23;7.10;;;;;;;6.65;99.92;98578.13;6250337;28;20065;-84
2023/01/16 12:03:01;;;;;;;11.10;5.45;;;;;;;6.68;98.92;98568.47;6248992;28;20037;-84
2023/01/16 12:06:09;;;;;;;6.65;4.30;;;;;;;6.64;97.71;98553.13;6281992;28;20049;-84
2023/01/16 12:09:35;;;;;;;12.05;5.43;;;;;;;6.75;98.58;98547.19;6232161;28;20077;-84
2023/01/16 12:16:23;;;;;;;12.25;6.57;;;;;;;6.86;97.86;98539.50;6249942;28;20453;-84
2023/01/16 12:19:43;;;;;;;13.20;6.65;;;;;;;7.16;96.64;98533.09;6248589;28;20497;-84
2023/01/16 12:22:58;;;;;;;10.07;5.53;;;;;;;7.03;93.74;98535.72;6249243;28;20049;-84
2023/01/16 12:26:05;;;;;;;33.60;9.15;;;;;;;7.26;94.85;98535.88;6249733;28;20494;-84
2023/01/16 12:29:18;;;;;;;24.92;12.30;;;;;;;7.31;95.57;98520.81;6248352;28;20535;-84
2023/01/16 12:32:47;;;;;;;14.88;7.00;;;;;;;7.12;93.71;98513.50;6248340;28;20092;-85
2023/01/16 12:35:58;;;;;;;13.90;8.10;;;;;;;7.15;94.43;98499.50;6249182;28;20521;-85
2023/01/16 12:39:14;;;;;;;10.75;5.72;;;;;;;7.14;94.54;98490.06;6249250;28;20103;-85
2023/01/16 12:45:40;;;;;;;10.73;6.03;;;;;;;7.31;94.97;98488.81;6249165;28;20378;-85
2023/01/16 12:48:41;;;;;;;10.95;6.60;;;;;;;7.30;95.83;98484.59;6248934;28;20116;-84
2023/01/16 12:51:52;;;;;;;10.25;5.30;;;;;;;7.30;93.78;98484.59;6247643;28;20046;-84
2023/01/16 12:54:56;;;;;;;9.38;5.35;;;;;;;7.32;94.10;98474.94;6248908;28;20049;-84
2023/01/16 12:58:19;;;;;;;11.60;5.97;;;;;;;7.30;93.93;98472.44;6247465;28;20041;-84
2023/01/16 13:01:26;;;;;;;53.72;19.45;;;;;;;7.23;92.24;98464.28;6248407;28;20416;-85
2023/01/16 13:04:38;;;;;;;25.17;12.57;;;;;;;7.22;92.62;98443.63;6246332;28;20129;-85
2023/01/16 13:07:53;;;;;;;17.63;6.93;;;;;;;7.29;91.25;98457.81;6247233;28;20478;-85
2023/01/16 13:14:24;;;;;;;9.18;5.30;;;;;;;7.18;90.88;98430.03;6248202;28;20128;-85
2023/01/16 13:17:34;;;;;;;14.85;6.43;;;;;;;7.24;91.17;98423.59;6246972;28;20076;-85
2023/01/16 13:20:36;;;;;;;13.65;6.30;;;;;;;7.19;90.62;98415.34;6248178;28;20029;-85
2023/01/16 13:23:54;;;;;;;9.18;4.93;;;;;;;7.24;90.22;98410.63;6246510;28;20057;-85
2023/01/16 13:27:01;;;;;;;9.35;4.63;;;;;;;7.22;91.18;98405.53;6246818;28;20432;-85
2023/01/16 13:30:06;;;;;;;11.85;6.35;;;;;;;7.12;91.65;98399.38;6246423;28;20135;-85
2023/01/16 13:33:11;;;;;;;21.05;8.35;;;;;;;7.15;91.55;98388.78;6246528;28;20528;-85
2023/01/16 13:36:44;;;;;;;9.98;5.13;;;;;;;7.05;91.00;98385.22;6263058;28;20501;-85
2023/01/16 13:40:05;;;;;;;7.00;4.80;;;;;;;7.00;91.59;98380.38;6229826;28;20054;-85
2023/01/16 13:46:38;;;;;;;7.60;4.70;;;;;;;6.95;92.50;98361.72;6245956;28;20054;-80
2023/01/16 13:49:39;;;;;;;6.95;4.55;;;;;;;7.07;91.55;98353.03;6247314;28;20353;-80
2023/01/16 13:52:42;;;;;;;10.20;4.95;;;;;;;7.05;91.10;98360.09;6247090;28;20045;-80
2023/01/16 13:55:46;;;;;;;12.20;5.10;;;;;;;7.01;92.02;98356.06;6246038;28;20046;-84
2023/01/16 13:59:27;;;;;;;11.90;5.22;;;;;;;7.03;91.53;98345.59;6246929;28;20417;-84
2023/01/16 14:02:40;;;;;;;9.20;4.15;;;;;;;7.06;91.02;98343.59;6246906;28;20044;-85
2023/01/16 14:05:44;;;;;;;13.20;5.00;;;;;;;7.10;93.11;98335.59;6246897;28;20061;-85
2023/01/16 14:09:08;;;;;;;9.88;5.13;;;;;;;6.96;92.59;98334.00;6245162;28;20037;-84
2023/01/16 14:12:25;;;;;;;7.82;5.10;;;;;;;7.04;92.79;98329.94;6245602;28;20068;-80
2023/01/16 14:19:16;;;;;;;9.52;4.65;;;;;;;6.83;92.41;98315.94;6246600;28;20554;-84
2023/01/16 14:25:27;;;;;;;8.98;4.72;;;;;;;6.78;93.52;98300.72;6246624;28;20045;-85
2023/01/16 14:28:29;;;;;;;7.20;4.75;;;;;;;6.79;93.94;98309.31;6245280;28;20063;-85
2023/01/16 14:31:40;;;;;;;9.60;5.28;;;;;;;6.72;93.08;98290.81;6245246;28;20095;-80
2023/01/16 14:34:51;;;;;;;9.63;4.93;;;;;;;6.69;92.84;98282.41;6261707;28;20057;-80
2023/01/16 14:38:18;;;;;;;18.42;8.10;;;;;;;6.77;93.76;98286.09;6246988;28;20037;-85
2023/01/16 14:55:21;;;;;;;8.55;4.43;;;;;;;6.52;94.11;98266.34;6244742;28;20053;-84
2023/01/16 14:58:31;;;;;;;12.00;6.07;;;;;;;6.48;94.88;98262.31;6244825;28;20064;-80
2023/01/16 15:05:04;;;;;;;51.38;19.52;;;;;;;6.51;95.22;98246.56;6245882;28;20469;-84
2023/01/16 15:08:05;;;;;;;57.08;22.13;;;;;;;6.41;94.87;98237.81;6244587;28;20065;-84
2023/01/16 15:11:33;;;;;;;23.03;10.47;;;;;;;6.30;97.01;98238.59;6244684;28;20072;-84
2023/01/16 15:14:34;;;;;;;31.73;11.38;;;;;;;6.30;97.31;98232.56;6245733;28;20508;-80
2023/01/16 15:24:25;;;;;;;11.02;5.68;;;;;;;6.34;97.10;98227.06;6250373;28;20060;-80
2023/01/16 15:27:35;;;;;;;19.40;8.25;;;;;;;6.34;97.58;98221.03;6249466;28;20034;-79
2023/01/16 15:30:36;;;;;;;44.38;15.88;;;;;;;6.35;96.52;98226.13;6232783;28;20421;-80
2023/01/16 15:34:10;;;;;;;64.22;26.92;;;;;;;6.31;95.29;98210.91;6232708;28;20045;-80
2023/01/16 15:37:18;;;;;;;50.40;24.23;;;;;;;6.21;97.20;98216.75;6248078;28;20476;-80
2023/01/16 15:40:27;;;;;;;36.08;15.32;;;;;;;6.20;96.71;98212.53;6250271;28;20041;-79
2023/01/16 15:47:17;;;;;;;12.80;6.55;;;;;;;6.20;98.88;98216.88;6247123;28;20095;-79
2023/01/16 15:50:37;;;;;;;7.93;4.40;;;;;;;6.28;97.20;98213.72;6230995;28;20537;-79
2023/01/16 15:53:43;;;;;;;6.72;4.65;;;;;;;6.24;97.54;98198.41;6248897;28;20107;-80
2023/01/16 15:56:47;;;;;;;8.77;4.65;;;;;;;6.18;98.65;98201.44;6232379;28;20076;-80
2023/01/16 15:59:55;;;;;;;7.85;3.97;;;;;;;6.19;98.81;98207.44;6232181;28;20058;-80
2023/01/16 16:03:10;;;;;;;7.57;4.78;;;;;;;6.14;97.78;98202.59;6248697;28;20088;-80
2023/01/16 16:06:15;;;;;;;11.70;5.68;;;;;;;6.15;98.51;98195.66;6249807;28;20096;-80
2023/01/16 16:09:19;;;;;;;11.63;4.50;;;;;;;6.12;100.00;98201.88;6264983;28;20061;-80
2023/01/16 16:12:21;;;;;;;7.07;4.05;;;;;;;5.97;100.00;98208.16;6248408;28;20081;-80
2023/01/16 16:18:57;;;;;;;9.25;4.35;;;;;;;6.06;96.88;98217.88;6249489;28;20462;-80